createdAt,value
2018-02-18T00:02:37.228Z,-0.23
2018-02-18T00:05:40.509Z,-0.25
2018-02-18T00:08:43.803Z,-0.32
2018-02-18T00:11:47.085Z,-0.29
2018-02-18T00:18:23.496Z,-0.24
2018-02-18T00:21:26.774Z,-0.26
2018-02-18T00:24:30.056Z,-0.29
2018-02-18T00:27:33.456Z,-0.32
2018-02-18T00:30:37.686Z,-0.39
2018-02-18T00:33:40.979Z,-0.39
2018-02-18T00:36:44.275Z,-0.40
2018-02-18T00:39:48.351Z,-0.45
2018-02-18T00:42:51.691Z,-0.44
2018-02-18T00:45:54.959Z,-0.41
2018-02-18T00:48:58.244Z,-0.25
2018-02-18T00:52:01.540Z,-0.32
2018-02-18T00:55:04.824Z,-0.38
2018-02-18T00:58:08.195Z,-0.33
2018-02-18T01:01:11.510Z,-0.32
2018-02-18T01:04:14.792Z,-0.33
2018-02-18T01:07:18.164Z,-0.36
2018-02-18T01:10:22.212Z,-0.35
2018-02-18T01:13:25.614Z,-0.36
2018-02-18T01:16:28.852Z,-0.41
2018-02-18T01:19:32.909Z,-0.42
2018-02-18T01:22:36.188Z,-0.46
2018-02-18T01:25:40.243Z,-0.50
2018-02-18T01:28:43.568Z,-0.49
2018-02-18T01:31:46.862Z,-0.46
2018-02-18T01:34:50.151Z,-0.46
2018-02-18T01:37:53.447Z,-0.47
2018-02-18T01:40:56.722Z,-0.52
2018-02-18T01:44:00.013Z,-0.47
2018-02-18T01:47:03.638Z,-0.45
2018-02-18T01:50:24.660Z,-0.45
2018-02-18T01:53:27.938Z,-0.26
2018-02-18T01:56:31.228Z,-0.20
2018-02-18T01:59:34.634Z,-0.16
2018-02-18T02:02:37.911Z,-0.13
2018-02-18T02:05:41.227Z,-0.31
2018-02-18T02:08:44.497Z,-0.43
2018-02-18T02:11:48.570Z,-0.46
2018-02-18T02:14:51.852Z,-0.35
2018-02-18T02:17:56.738Z,-0.21
2018-02-18T02:21:00.782Z,-0.22
2018-02-18T02:24:04.073Z,-0.25
2018-02-18T02:27:07.346Z,-0.26
2018-02-18T02:30:11.407Z,-0.07
2018-02-18T02:33:14.706Z,-0.13
2018-02-18T02:36:18.099Z,-0.13
2018-02-18T02:39:21.393Z,-0.12
2018-02-18T02:42:24.659Z,-0.19
2018-02-18T02:45:29.761Z,-0.24
2018-02-18T02:48:34.018Z,-0.33
2018-02-18T02:51:38.058Z,-0.22
2018-02-18T02:54:41.757Z,-0.21
2018-02-18T02:57:45.028Z,-0.38
2018-02-18T03:00:49.569Z,-0.46
2018-02-18T03:03:53.623Z,-0.44
2018-02-18T03:06:57.277Z,-0.52
2018-02-18T03:10:01.425Z,-0.60
2018-02-18T03:13:04.694Z,-0.61
2018-02-18T03:16:08.837Z,-0.70
2018-02-18T03:19:12.436Z,-0.73
2018-02-18T03:22:15.726Z,-0.76
2018-02-18T03:25:20.114Z,-0.78
2018-02-18T03:28:23.413Z,-0.78
2018-02-18T03:31:28.463Z,-0.69
2018-02-18T03:34:31.750Z,-0.76
2018-02-18T03:37:35.029Z,-0.76
2018-02-18T03:40:38.309Z,-0.64
2018-02-18T03:43:41.630Z,-0.54
2018-02-18T03:46:44.971Z,-0.51
2018-02-18T03:49:49.104Z,-0.51
2018-02-18T03:52:52.379Z,-0.58
2018-02-18T03:55:56.444Z,-0.73
2018-02-18T03:58:59.782Z,-0.81
2018-02-18T04:02:03.061Z,-0.81
2018-02-18T04:05:06.384Z,-0.87
2018-02-18T04:08:10.452Z,-0.86
2018-02-18T04:11:13.749Z,-0.84
2018-02-18T04:14:17.049Z,-0.87
2018-02-18T04:17:20.307Z,-0.86
2018-02-18T04:20:24.366Z,-0.86
2018-02-18T04:23:27.734Z,-0.85
2018-02-18T04:26:31.045Z,-0.85
2018-02-18T04:29:34.324Z,-0.84
2018-02-18T04:32:37.632Z,-0.79
2018-02-18T04:35:40.947Z,-0.72
2018-02-18T04:38:44.208Z,-0.63
2018-02-18T04:41:48.261Z,-0.61
2018-02-18T04:44:51.627Z,-0.63
2018-02-18T04:47:56.893Z,-0.62
2018-02-18T04:51:00.175Z,-0.51
2018-02-18T04:54:03.469Z,-0.54
2018-02-18T04:57:06.751Z,-0.61
2018-02-18T05:00:10.821Z,-0.67
2018-02-18T05:03:14.197Z,-0.74
2018-02-18T05:06:17.472Z,-0.66
2018-02-18T05:09:21.601Z,-0.61
2018-02-18T05:12:24.886Z,-0.46
2018-02-18T05:15:28.931Z,-0.42
2018-02-18T05:18:32.203Z,-0.27
2018-02-18T05:21:35.501Z,-0.25
2018-02-18T05:24:39.614Z,-0.15
2018-02-18T05:27:43.664Z,-0.13
2018-02-18T05:30:46.944Z,-0.12
2018-02-18T05:33:50.227Z,0.02
2018-02-18T05:36:53.626Z,0.05
2018-02-18T05:39:57.658Z,0.01
2018-02-18T05:43:02.088Z,0.10
2018-02-18T05:46:05.350Z,0.07
2018-02-18T05:49:09.400Z,0.11
2018-02-18T05:52:12.697Z,0.18
2018-02-18T05:55:15.984Z,0.16
2018-02-18T05:58:20.017Z,0.02
2018-02-18T06:01:23.288Z,0.02
2018-02-18T06:04:26.585Z,0.09
2018-02-18T06:07:29.868Z,0.07
2018-02-18T06:10:33.902Z,0.03
2018-02-18T06:13:37.189Z,-0.02
2018-02-18T06:16:41.221Z,-0.04
2018-02-18T06:19:44.619Z,-0.12
2018-02-18T06:22:47.898Z,-0.11
2018-02-18T06:25:51.953Z,0.03
2018-02-18T06:28:56.262Z,0.00
2018-02-18T06:31:59.558Z,-0.11
2018-02-18T06:35:02.897Z,-0.08
2018-02-18T06:38:06.959Z,-0.09
2018-02-18T06:41:10.486Z,-0.06
2018-02-18T06:44:13.754Z,-0.03
2018-02-18T06:47:17.029Z,0.08
2018-02-18T06:50:21.077Z,0.02
2018-02-18T06:53:24.347Z,0.19
2018-02-18T06:56:28.391Z,0.20
2018-02-18T06:59:33.672Z,0.37
2018-02-18T07:02:36.939Z,0.25
2018-02-18T07:05:40.225Z,0.24
2018-02-18T07:08:44.259Z,0.14
2018-02-18T07:11:47.538Z,0.43
2018-02-18T07:14:50.819Z,0.44
2018-02-18T07:17:54.948Z,0.46
2018-02-18T07:20:58.212Z,0.05
2018-02-18T07:24:02.289Z,0.09
2018-02-18T07:27:05.566Z,0.13
2018-02-18T07:30:08.839Z,0.27
2018-02-18T07:33:12.869Z,0.19
2018-02-18T07:36:16.147Z,0.10
2018-02-18T07:39:20.188Z,0.11
2018-02-18T07:42:23.479Z,0.42
2018-02-18T07:45:26.789Z,0.70
2018-02-18T07:48:30.079Z,1.08
2018-02-18T07:51:33.349Z,1.03
2018-02-18T07:54:37.411Z,1.33
2018-02-18T07:57:40.680Z,1.40
2018-02-18T08:00:44.175Z,1.28
2018-02-18T08:03:47.500Z,1.06
2018-02-18T08:06:50.772Z,1.25
2018-02-18T08:09:54.035Z,1.39
2018-02-18T08:12:57.310Z,1.30
2018-02-18T08:16:00.855Z,0.92
2018-02-18T08:19:06.122Z,1.53
2018-02-18T08:22:09.382Z,1.52
2018-02-18T08:25:12.657Z,1.52
2018-02-18T08:28:15.912Z,1.48
2018-02-18T08:31:19.183Z,1.41
2018-02-18T08:34:23.222Z,0.93
2018-02-18T08:37:26.492Z,0.76
2018-02-18T08:40:31.137Z,0.71
2018-02-18T08:43:34.555Z,1.18
2018-02-18T08:46:37.874Z,1.45
2018-02-18T08:49:41.194Z,1.58
2018-02-18T08:52:44.559Z,2.33
2018-02-18T08:55:47.841Z,1.98
2018-02-18T08:58:51.212Z,0.75
2018-02-18T09:01:55.341Z,0.59
2018-02-18T09:04:59.433Z,1.10
2018-02-18T09:08:02.830Z,0.91
2018-02-18T09:11:08.724Z,0.63
2018-02-18T09:14:12.121Z,1.43
2018-02-18T09:17:16.362Z,1.44
2018-02-18T09:20:19.749Z,1.62
2018-02-18T09:23:23.842Z,2.24
2018-02-18T09:26:27.432Z,1.92
2018-02-18T09:29:30.839Z,0.98
2018-02-18T09:32:34.171Z,0.87
2018-02-18T09:35:38.746Z,1.51
2018-02-18T09:38:42.824Z,2.23
2018-02-18T09:41:46.093Z,1.26
2018-02-18T09:44:50.235Z,1.05
2018-02-18T09:47:53.757Z,1.72
2018-02-18T09:50:57.378Z,1.56
2018-02-18T09:54:00.822Z,1.45
2018-02-18T09:57:04.903Z,1.40
2018-02-18T10:00:08.570Z,1.67
2018-02-18T10:03:11.864Z,1.88
2018-02-18T10:06:15.175Z,2.07
2018-02-18T10:09:18.557Z,2.13
2018-02-18T10:12:21.946Z,2.19
2018-02-18T10:15:25.266Z,2.33
2018-02-18T10:18:28.615Z,2.11
2018-02-18T10:21:32.703Z,2.29
2018-02-18T10:24:41.276Z,2.49
2018-02-18T10:27:45.324Z,2.22
2018-02-18T10:30:48.701Z,1.97
2018-02-18T10:33:51.987Z,1.90
2018-02-18T10:36:56.043Z,1.89
2018-02-18T10:39:59.408Z,1.97
2018-02-18T10:43:02.721Z,2.33
2018-02-18T10:46:06.039Z,2.70
2018-02-18T10:49:10.084Z,2.34
2018-02-18T10:52:13.372Z,2.51
2018-02-18T10:55:17.452Z,2.52
2018-02-18T10:58:20.740Z,2.43
2018-02-18T11:01:24.114Z,2.80
2018-02-18T11:04:28.218Z,2.55
2018-02-18T11:07:31.488Z,3.13
2018-02-18T11:10:35.161Z,3.60
2018-02-18T11:13:38.477Z,3.72
2018-02-18T11:16:41.775Z,2.83
2018-02-18T11:19:45.083Z,2.70
2018-02-18T11:22:53.839Z,2.22
2018-02-18T11:25:57.256Z,1.85
2018-02-18T11:29:01.311Z,1.96
2018-02-18T11:32:04.595Z,1.98
2018-02-18T11:35:08.004Z,1.70
2018-02-18T11:38:12.319Z,2.06
2018-02-18T11:41:15.593Z,2.35
2018-02-18T11:44:20.073Z,2.23
2018-02-18T11:47:23.592Z,2.50
2018-02-18T11:50:26.942Z,1.95
2018-02-18T11:53:30.248Z,2.16
2018-02-18T11:56:33.774Z,2.43
2018-02-18T11:59:37.091Z,2.18
2018-02-18T12:02:40.374Z,2.08
2018-02-18T12:05:43.684Z,1.88
2018-02-18T12:08:47.103Z,2.36
2018-02-18T12:11:50.450Z,2.49
2018-02-18T12:14:53.778Z,3.11
2018-02-18T12:18:07.969Z,2.69
2018-02-18T12:21:13.908Z,3.44
2018-02-18T12:24:17.386Z,4.01
2018-02-18T12:27:20.673Z,4.53
2018-02-18T12:30:23.944Z,4.86
2018-02-18T12:33:27.217Z,3.92
2018-02-18T12:36:31.266Z,3.02
2018-02-18T12:39:34.530Z,2.96
2018-02-18T12:42:37.800Z,2.55
2018-02-18T12:45:41.066Z,2.52
2018-02-18T12:48:44.457Z,2.87
2018-02-18T12:51:47.725Z,3.16
2018-02-18T12:54:51.885Z,3.00
2018-02-18T12:57:55.166Z,2.36
2018-02-18T13:00:58.478Z,2.48
2018-02-18T13:04:01.786Z,2.40
2018-02-18T13:07:05.224Z,2.06
2018-02-18T13:10:08.567Z,1.84
2018-02-18T13:13:11.842Z,1.97
2018-02-18T13:16:16.100Z,2.10
2018-02-18T13:19:19.461Z,2.13
2018-02-18T13:22:22.749Z,1.88
2018-02-18T13:25:26.025Z,1.99
2018-02-18T13:28:29.364Z,2.28
2018-02-18T13:31:32.659Z,2.34
2018-02-18T13:34:37.617Z,2.05
2018-02-18T13:37:40.913Z,2.44
2018-02-18T13:40:44.245Z,2.67
2018-02-18T13:43:47.544Z,2.62
2018-02-18T13:46:50.842Z,2.45
2018-02-18T13:49:54.108Z,2.22
2018-02-18T13:52:57.437Z,2.38
2018-02-18T13:56:00.777Z,2.21
2018-02-18T13:59:04.084Z,2.01
2018-02-18T14:02:21.192Z,2.16
2018-02-18T14:05:24.736Z,2.13
2018-02-18T14:08:28.017Z,1.93
2018-02-18T14:11:31.355Z,1.88
2018-02-18T14:14:34.618Z,1.48
2018-02-18T14:17:37.940Z,1.38
2018-02-18T14:20:41.205Z,1.29
2018-02-18T14:23:45.007Z,1.12
2018-02-18T14:26:49.342Z,1.58
2018-02-18T14:29:52.742Z,1.64
2018-02-18T14:32:56.042Z,0.87
2018-02-18T14:35:59.386Z,0.76
2018-02-18T14:39:02.686Z,0.82
2018-02-18T14:42:23.829Z,0.97
2018-02-18T14:45:45.985Z,1.02
2018-02-18T14:49:07.179Z,0.85
2018-02-18T14:52:28.278Z,0.85
2018-02-18T14:55:49.392Z,0.85
2018-02-18T14:58:52.660Z,0.65
2018-02-18T15:01:56.037Z,0.77
2018-02-18T15:04:59.345Z,0.88
2018-02-18T15:08:02.648Z,1.15
2018-02-18T15:11:06.163Z,1.04
2018-02-18T15:14:09.424Z,0.83
2018-02-18T15:17:12.732Z,0.74
2018-02-18T15:20:16.036Z,0.91
2018-02-18T15:23:20.555Z,0.80
2018-02-18T15:26:23.845Z,1.08
2018-02-18T15:29:28.417Z,0.94
2018-02-18T15:32:31.673Z,0.71
2018-02-18T15:35:35.017Z,0.65
2018-02-18T15:38:38.335Z,0.64
2018-02-18T15:41:55.769Z,0.56
2018-02-18T15:44:59.913Z,0.57
2018-02-18T15:48:03.246Z,0.78
2018-02-18T15:51:06.520Z,1.00
2018-02-18T15:54:09.869Z,0.88
2018-02-18T15:57:13.833Z,0.84
2018-02-18T16:00:17.212Z,0.73
2018-02-18T16:03:20.574Z,0.76
2018-02-18T16:06:24.625Z,0.88
2018-02-18T16:09:28.738Z,0.86
2018-02-18T16:12:32.784Z,0.74
2018-02-18T16:15:36.041Z,0.72
2018-02-18T16:18:39.315Z,0.58
2018-02-18T16:21:42.628Z,0.65
2018-02-18T16:24:45.897Z,0.72
2018-02-18T16:27:49.692Z,0.79
2018-02-18T16:30:53.004Z,0.77
2018-02-18T16:33:57.015Z,0.64
2018-02-18T16:37:01.136Z,0.64
2018-02-18T16:40:04.673Z,0.55
2018-02-18T16:43:07.977Z,0.45
2018-02-18T16:46:11.371Z,0.43
2018-02-18T16:49:15.560Z,0.45
2018-02-18T16:52:18.839Z,0.46
2018-02-18T16:55:24.129Z,0.31
2018-02-18T16:58:27.424Z,0.38
2018-02-18T17:01:30.768Z,0.35
2018-02-18T17:04:34.140Z,0.32
2018-02-18T17:07:38.203Z,0.32
2018-02-18T17:10:41.533Z,0.35
2018-02-18T17:13:44.806Z,0.42
2018-02-18T17:16:48.310Z,0.50
2018-02-18T17:19:51.597Z,0.57
2018-02-18T17:22:54.908Z,0.54
2018-02-18T17:25:58.232Z,0.45
2018-02-18T17:29:01.498Z,0.42
2018-02-18T17:32:04.763Z,0.36
2018-02-18T17:35:08.044Z,0.42
2018-02-18T17:38:12.095Z,0.48
2018-02-18T17:41:15.381Z,0.30
2018-02-18T17:44:18.679Z,0.49
2018-02-18T17:47:21.964Z,0.47
2018-02-18T17:50:26.040Z,0.53
2018-02-18T17:53:29.313Z,0.49
2018-02-18T17:56:32.606Z,0.41
2018-02-18T17:59:35.906Z,0.48
2018-02-18T18:02:39.180Z,0.40
2018-02-18T18:05:42.495Z,0.38
2018-02-18T18:08:45.774Z,0.37
2018-02-18T18:11:49.050Z,0.30
2018-02-18T18:14:53.164Z,0.27
2018-02-18T18:18:00.742Z,0.07
2018-02-18T18:21:04.016Z,-0.03
2018-02-18T18:24:07.312Z,0.02
2018-02-18T18:27:10.701Z,0.11
2018-02-18T18:30:14.013Z,-0.13
2018-02-18T18:33:17.350Z,0.04
2018-02-18T18:36:20.646Z,-0.06
2018-02-18T18:39:26.214Z,-0.07
2018-02-18T18:42:29.598Z,0.05
2018-02-18T18:45:32.876Z,-0.06
2018-02-18T18:48:36.343Z,0.07
2018-02-18T18:51:39.658Z,0.02
2018-02-18T18:54:42.945Z,0.12
2018-02-18T18:57:46.234Z,0.11
2018-02-18T19:00:49.542Z,0.07
2018-02-18T19:03:53.608Z,0.06
2018-02-18T19:06:57.656Z,0.04
2018-02-18T19:10:00.979Z,-0.15
2018-02-18T19:13:04.253Z,-0.17
2018-02-18T19:16:07.550Z,-0.21
2018-02-18T19:19:10.888Z,-0.29
2018-02-18T19:22:15.081Z,-0.27
2018-02-18T19:25:18.385Z,-0.26
2018-02-18T19:28:21.660Z,-0.24
2018-02-18T19:31:24.965Z,-0.17
2018-02-18T19:34:28.259Z,-0.22
2018-02-18T19:37:31.531Z,-0.21
2018-02-18T19:40:35.582Z,-0.25
2018-02-18T19:43:38.872Z,-0.24
2018-02-18T19:46:42.194Z,-0.14
2018-02-18T19:49:45.479Z,-0.13
2018-02-18T19:52:48.759Z,-0.25
2018-02-18T19:55:53.064Z,-0.31
2018-02-18T19:58:58.348Z,-0.40
2018-02-18T20:02:01.641Z,-0.48
2018-02-18T20:05:05.169Z,-0.51
2018-02-18T20:08:08.461Z,-0.63
2018-02-18T20:11:11.754Z,-0.66
2018-02-18T20:14:15.021Z,-0.73
2018-02-18T20:17:18.342Z,-0.83
2018-02-18T20:20:21.614Z,-0.82
2018-02-18T20:23:24.953Z,-0.87
2018-02-18T20:26:29.537Z,-0.84
2018-02-18T20:29:32.854Z,-0.91
2018-02-18T20:32:36.176Z,-0.93
2018-02-18T20:35:39.516Z,-0.98
2018-02-18T20:38:43.579Z,-1.04
2018-02-18T20:41:46.863Z,-1.08
2018-02-18T20:44:50.148Z,-1.14
2018-02-18T20:47:53.448Z,-1.16
2018-02-18T20:50:56.708Z,-1.21
2018-02-18T20:54:00.809Z,-1.31
2018-02-18T20:57:04.114Z,-1.33
2018-02-18T21:00:07.384Z,-1.38
2018-02-18T21:03:10.670Z,-1.32
2018-02-18T21:06:13.952Z,-1.44
2018-02-18T21:09:17.788Z,-1.57
2018-02-18T21:12:21.065Z,-1.62
2018-02-18T21:15:24.337Z,-1.62
2018-02-18T21:18:27.767Z,-1.59
2018-02-18T21:21:31.053Z,-1.62
2018-02-18T21:24:34.538Z,-1.69
2018-02-18T21:27:37.828Z,-1.81
2018-02-18T21:30:41.859Z,-1.72
2018-02-18T21:33:45.143Z,-1.79
2018-02-18T21:36:48.541Z,-1.84
2018-02-18T21:39:52.577Z,-1.84
2018-02-18T21:42:55.874Z,-1.85
2018-02-18T21:45:59.162Z,-1.81
2018-02-18T21:49:03.209Z,-1.84
2018-02-18T21:52:06.501Z,-1.73
2018-02-18T21:55:09.775Z,-1.77
2018-02-18T21:58:13.073Z,-1.64
2018-02-18T22:01:16.354Z,-1.70
2018-02-18T22:04:20.394Z,-1.76
2018-02-18T22:07:23.717Z,-1.84
2018-02-18T22:10:26.973Z,-1.76
2018-02-18T22:13:32.338Z,-1.84
2018-02-18T22:16:35.608Z,-1.89
2018-02-18T22:19:39.699Z,-1.92
2018-02-18T22:22:43.785Z,-1.84
2018-02-18T22:25:47.051Z,-1.91
2018-02-18T22:28:50.321Z,-1.91
2018-02-18T22:31:54.356Z,-1.80
2018-02-18T22:34:57.676Z,-1.73
2018-02-18T22:38:02.200Z,-1.80
2018-02-18T22:41:05.470Z,-1.67
2018-02-18T22:44:10.239Z,-1.64
2018-02-18T22:47:13.591Z,-1.52
2018-02-18T22:50:18.215Z,-1.49
2018-02-18T22:53:22.266Z,-1.54
2018-02-18T22:56:25.564Z,-1.53
2018-02-18T22:59:29.785Z,-1.56
2018-02-18T23:02:33.078Z,-1.75
2018-02-18T23:05:41.920Z,-1.76
2018-02-18T23:08:45.189Z,-1.69
2018-02-18T23:11:48.464Z,-1.66
2018-02-18T23:14:51.748Z,-1.73
2018-02-18T23:17:55.030Z,-1.73
2018-02-18T23:21:09.174Z,-1.80
2018-02-18T23:24:12.441Z,-1.79
2018-02-18T23:27:15.800Z,-1.76
2018-02-18T23:30:19.130Z,-1.87
2018-02-18T23:33:23.152Z,-1.82
2018-02-18T23:36:26.437Z,-1.71
2018-02-18T23:39:30.464Z,-1.67
2018-02-18T23:42:34.147Z,-1.71
2018-02-18T23:45:37.456Z,-1.67
2018-02-18T23:48:41.501Z,-1.60
2018-02-18T23:51:44.778Z,-1.62
2018-02-18T23:54:48.046Z,-1.50
2018-02-18T23:57:51.329Z,-1.49
